Time;durP1;ratioP1;P1;durP2;ratioP2;P2;SDS_P1;SDS_P2;PMS_P1;PMS_P2;Temp;Humidity;BMP_temperature;BMP_pressure;BME280_temperature;BME280_humidity;BME280_pressure;Samples;Min_cycle;Max_cycle;Signal;HPM_P1;HPM_P2
2023/05/27 00:02:20;;;;;;;20.20;5.68;;;;;;;16.96;53.64;101823.75;5013256;28;20049;-63
2023/05/27 00:04:47;;;;;;;19.38;5.72;;;;;;;16.96;52.85;101832.09;5012797;28;20058;-63
2023/05/27 00:07:15;;;;;;;21.35;6.25;;;;;;;17.09;52.82;101836.66;5012529;28;20050;-63
2023/05/27 00:09:45;;;;;;;23.58;5.82;;;;;;;16.65;53.46;101832.28;4994560;28;20422;-63
2023/05/27 00:12:13;;;;;;;19.90;6.53;;;;;;;16.77;53.17;101832.44;5028790;28;20054;-63
2023/05/27 00:14:40;;;;;;;20.40;5.88;;;;;;;17.13;54.36;101829.28;5014102;28;20045;-63
2023/05/27 00:17:14;;;;;;;23.65;6.82;;;;;;;17.01;52.46;101831.94;5011532;28;20052;-63
2023/05/27 00:19:42;;;;;;;28.98;7.00;;;;;;;17.22;51.63;101820.91;5011392;28;20038;-64
2023/05/27 00:22:11;;;;;;;23.75;6.95;;;;;;;16.55;53.92;101831.78;5004302;28;20052;-63
2023/05/27 00:24:41;;;;;;;24.67;6.15;;;;;;;16.71;53.11;101824.59;5013945;28;20148;-63
2023/05/27 00:27:10;;;;;;;25.05;6.38;;;;;;;16.39;53.74;101825.00;5013350;28;20053;-63
2023/05/27 00:29:38;;;;;;;25.95;6.05;;;;;;;16.32;53.88;101827.50;5011004;28;20050;-62
2023/05/27 00:32:05;;;;;;;25.25;5.93;;;;;;;16.18;54.08;101824.03;5012773;28;20049;-62
2023/05/27 00:34:34;;;;;;;31.50;6.68;;;;;;;15.84;54.99;101821.13;5044841;28;20122;-63
2023/05/27 00:37:02;;;;;;;22.98;6.18;;;;;;;16.29;54.30;101809.47;5010414;28;20513;-63
2023/05/27 00:39:29;;;;;;;24.73;6.72;;;;;;;16.67;53.08;101812.47;5012219;28;20065;-63
2023/05/27 00:41:57;;;;;;;23.83;7.00;;;;;;;16.38;53.16;101813.09;5011896;28;20066;-63
2023/05/27 00:44:25;;;;;;;22.67;6.15;;;;;;;16.39;53.13;101811.09;5012405;28;20510;-62
2023/05/27 00:46:53;;;;;;;21.65;6.20;;;;;;;16.46;52.93;101809.53;5012080;28;20041;-63
2023/05/27 00:49:21;;;;;;;19.65;5.22;;;;;;;16.36;53.40;101809.81;5011276;28;20042;-62
2023/05/27 00:51:49;;;;;;;24.67;6.18;;;;;;;16.29;53.38;101811.44;5011067;28;20072;-63
2023/05/27 00:54:16;;;;;;;23.25;6.00;;;;;;;16.11;53.39;101804.22;5013004;28;20422;-63
2023/05/27 00:56:44;;;;;;;20.25;6.13;;;;;;;16.09;53.65;101801.75;5012380;28;20061;-62
2023/05/27 00:59:12;;;;;;;19.60;6.07;;;;;;;16.14;53.78;101804.41;5010657;28;20053;-62
2023/05/27 01:01:43;;;;;;;20.63;6.00;;;;;;;16.05;53.80;101795.22;5010354;28;20057;-62
2023/05/27 01:04:12;;;;;;;25.45;6.35;;;;;;;16.19;53.40;101797.84;5024071;28;20069;-62
2023/05/27 01:07:08;;;;;;;22.70;5.85;;;;;;;16.28;53.10;101791.16;5011210;28;20052;-63
2023/05/27 01:10:01;;;;;;;25.65;6.82;;;;;;;16.29;53.02;101794.75;5010177;28;20057;-62
2023/05/27 01:12:52;;;;;;;20.25;5.53;;;;;;;16.17;53.05;101792.63;5024687;28;20378;-63
2023/05/27 01:15:20;;;;;;;21.20;6.15;;;;;;;16.11;53.39;101796.69;5011686;28;20485;-63
2023/05/27 01:17:50;;;;;;;21.85;6.82;;;;;;;15.99;53.54;101790.13;5010654;28;20053;-62
2023/05/27 01:20:18;;;;;;;23.58;6.07;;;;;;;15.71;54.16;101793.16;5010724;28;20045;-64
2023/05/27 01:22:47;;;;;;;17.38;5.60;;;;;;;15.78;54.37;101787.13;4995155;28;20062;-63
2023/05/27 01:25:15;;;;;;;22.52;5.72;;;;;;;15.78;53.80;101787.94;5011172;28;20041;-63
2023/05/27 01:27:42;;;;;;;29.65;6.60;;;;;;;15.92;53.84;101789.78;5012308;28;20072;-63
2023/05/27 01:30:10;;;;;;;22.00;6.15;;;;;;;15.77;53.77;101800.22;5011338;28;20046;-63
2023/05/27 01:32:41;;;;;;;22.35;5.35;;;;;;;15.45;54.56;101795.00;5022103;28;20053;-62
2023/05/27 01:35:11;;;;;;;22.50;5.57;;;;;;;15.53;54.20;101799.78;5010650;28;20052;-63
2023/05/27 01:37:42;;;;;;;28.73;5.75;;;;;;;15.35;54.77;101788.88;4999940;28;20045;-62
2023/05/27 01:40:10;;;;;;;23.38;6.22;;;;;;;15.44;54.49;101798.13;5002104;28;20046;-63
2023/05/27 01:42:39;;;;;;;18.75;5.22;;;;;;;15.57;53.97;101797.16;5027012;28;20468;-62
2023/05/27 01:45:11;;;;;;;26.05;5.82;;;;;;;15.53;53.75;101785.09;5043402;28;20050;-62
2023/05/27 01:47:42;;;;;;;16.70;5.50;;;;;;;15.36;54.11;101788.56;5038479;28;20045;-62
2023/05/27 01:50:09;;;;;;;22.52;6.20;;;;;;;15.21;54.34;101785.38;5000009;28;20536;-62
2023/05/27 01:52:37;;;;;;;20.63;5.40;;;;;;;15.05;54.92;101784.97;5010974;28;20049;-63
2023/05/27 01:55:05;;;;;;;24.55;6.22;;;;;;;15.16;54.66;101775.25;5011746;28;20046;-64
2023/05/27 01:57:32;;;;;;;20.58;5.57;;;;;;;15.44;53.93;101784.22;4995337;28;20049;-62
2023/05/27 02:00:00;;;;;;;17.08;5.10;;;;;;;15.23;54.58;101783.94;5029216;28;20058;-63
2023/05/27 02:02:28;;;;;;;20.08;5.90;;;;;;;15.23;54.16;101783.09;5018308;28;20050;-63
2023/05/27 02:04:55;;;;;;;18.40;5.63;;;;;;;15.28;54.01;101777.41;5009738;28;20440;-62
2023/05/27 02:07:23;;;;;;;23.42;5.10;;;;;;;15.60;53.13;101789.00;5009991;28;20045;-62
2023/05/27 02:09:50;;;;;;;19.45;5.93;;;;;;;15.20;53.97;101780.97;5008522;28;20731;-61
2023/05/27 02:12:18;;;;;;;27.38;5.40;;;;;;;15.07;54.24;101781.88;5006692;28;20061;-62
2023/05/27 02:14:46;;;;;;;21.60;5.25;;;;;;;15.12;54.05;101778.97;5011353;28;20544;-62
2023/05/27 02:17:14;;;;;;;21.13;5.38;;;;;;;15.34;53.74;101779.72;5028312;28;20052;-62
2023/05/27 02:19:41;;;;;;;19.92;5.60;;;;;;;15.33;53.61;101778.09;5017529;28;20413;-62
2023/05/27 02:22:10;;;;;;;22.38;5.43;;;;;;;15.45;53.06;101792.22;5021490;28;20046;-63
2023/05/27 02:24:38;;;;;;;20.85;5.05;;;;;;;15.15;53.70;101784.69;5011747;28;20042;-63
2023/05/27 02:27:05;;;;;;;23.63;5.95;;;;;;;14.91;54.04;101784.22;5011112;28;20054;-62
2023/05/27 02:29:33;;;;;;;20.50;5.50;;;;;;;14.65;54.78;101786.81;4985738;28;20054;-63
2023/05/27 02:32:00;;;;;;;18.48;5.25;;;;;;;14.70;54.72;101783.09;5011892;28;20053;-62
2023/05/27 02:34:28;;;;;;;21.98;5.45;;;;;;;14.79;54.39;101777.59;5011429;28;20452;-63
2023/05/27 02:36:55;;;;;;;22.30;5.45;;;;;;;14.61;54.63;101771.94;5043434;28;20050;-63
2023/05/27 02:39:22;;;;;;;20.60;5.13;;;;;;;14.70;54.37;101772.00;5010119;28;20061;-62
2023/05/27 02:41:51;;;;;;;21.27;5.85;;;;;;;14.83;53.94;101775.84;5009276;28;20042;-64
2023/05/27 02:44:18;;;;;;;18.35;5.03;;;;;;;14.83;53.97;101773.06;4994164;28;20045;-63
2023/05/27 02:46:46;;;;;;;26.50;5.85;;;;;;;14.71;53.99;101761.72;5011889;28;20053;-63
2023/05/27 02:49:14;;;;;;;17.80;5.82;;;;;;;14.51;54.40;101766.66;5007448;28;20050;-61
2023/05/27 02:51:42;;;;;;;18.77;4.65;;;;;;;14.85;54.02;101768.88;5007876;28;20046;-62
2023/05/27 02:54:09;;;;;;;18.95;5.10;;;;;;;14.46;54.55;101761.22;4992372;28;20058;-61
2023/05/27 02:56:37;;;;;;;20.83;5.03;;;;;;;14.66;54.25;101771.81;5001298;28;20065;-62
2023/05/27 02:59:04;;;;;;;19.30;5.05;;;;;;;14.50;54.47;101761.44;5039519;28;20046;-61
2023/05/27 03:01:32;;;;;;;21.77;5.40;;;;;;;14.61;54.00;101762.78;5039960;28;20053;-61
2023/05/27 03:03:59;;;;;;;18.08;4.97;;;;;;;14.60;53.78;101758.41;5010159;28;20058;-61
2023/05/27 03:06:27;;;;;;;21.02;5.90;;;;;;;14.79;53.42;101763.75;5009627;28;20045;-61
2023/05/27 03:08:54;;;;;;;21.65;5.53;;;;;;;14.68;53.53;101761.22;5008646;28;20699;-62
2023/05/27 03:11:22;;;;;;;16.65;4.80;;;;;;;14.48;53.60;101760.91;5015499;28;20076;-63
2023/05/27 03:13:50;;;;;;;21.42;5.07;;;;;;;14.41;53.73;101760.53;5025859;28;20033;-63
2023/05/27 03:16:19;;;;;;;28.42;4.65;;;;;;;14.36;53.90;101760.66;5010685;28;20064;-61
2023/05/27 03:18:47;;;;;;;22.23;5.33;;;;;;;14.71;53.23;101757.03;5009624;28;20090;-61
2023/05/27 03:21:14;;;;;;;18.45;4.90;;;;;;;14.90;52.51;101757.63;5009170;28;20303;-62
2023/05/27 03:23:43;;;;;;;19.50;5.10;;;;;;;14.74;52.73;101761.94;5012945;28;20050;-62
2023/05/27 03:26:11;;;;;;;17.63;5.00;;;;;;;14.13;53.89;101770.03;5021591;28;20054;-62
2023/05/27 03:28:39;;;;;;;19.13;4.90;;;;;;;14.01;54.32;101766.97;5013345;28;20057;-62
2023/05/27 03:31:08;;;;;;;23.50;5.40;;;;;;;14.02;54.61;101755.56;5021969;28;20054;-62
2023/05/27 03:33:43;;;;;;;19.67;4.78;;;;;;;14.30;53.79;101756.34;4998194;28;20053;-62
2023/05/27 03:36:11;;;;;;;13.32;4.20;;;;;;;14.49;53.53;101762.53;5026248;28;20057;-62
2023/05/27 03:38:39;;;;;;;17.33;4.80;;;;;;;14.37;53.59;101751.19;5012620;28;20053;-62
2023/05/27 03:41:06;;;;;;;17.05;4.72;;;;;;;14.24;53.40;101754.81;5013906;28;20060;-61
2023/05/27 03:43:37;;;;;;;18.08;4.78;;;;;;;14.15;53.92;101753.91;5013139;28;20060;-61
2023/05/27 03:46:04;;;;;;;17.40;4.53;;;;;;;14.25;54.37;101754.50;5012659;28;20067;-61
2023/05/27 03:48:32;;;;;;;18.38;4.93;;;;;;;14.37;53.33;101757.56;5012451;28;20054;-62
2023/05/27 03:50:59;;;;;;;15.15;4.82;;;;;;;14.62;53.18;101745.03;5011780;28;20046;-61
2023/05/27 03:53:27;;;;;;;24.90;5.32;;;;;;;14.66;52.23;101755.16;5013970;28;20042;-62
2023/05/27 03:55:56;;;;;;;20.25;4.55;;;;;;;14.74;52.09;101753.59;5028836;28;20042;-62
2023/05/27 03:58:24;;;;;;;21.00;5.07;;;;;;;14.70;51.92;101755.38;5029215;28;20046;-62
2023/05/27 04:00:52;;;;;;;17.25;4.80;;;;;;;14.47;52.27;101757.31;5012138;28;20061;-61
2023/05/27 04:03:20;;;;;;;20.27;5.05;;;;;;;14.56;52.28;101749.88;5026713;28;20578;-63
2023/05/27 04:05:49;;;;;;;21.17;5.00;;;;;;;14.54;52.08;101754.09;5014096;28;20056;-61
2023/05/27 04:08:17;;;;;;;18.42;5.00;;;;;;;14.25;52.71;101760.03;5012006;28;20046;-62
2023/05/27 04:10:44;;;;;;;23.70;5.10;;;;;;;14.26;53.00;101767.25;5012004;28;20695;-62
2023/05/27 04:13:12;;;;;;;17.50;4.50;;;;;;;14.06;53.44;101767.69;5013642;28;20045;-62
2023/05/27 04:15:40;;;;;;;22.55;5.97;;;;;;;14.08;53.42;101756.28;5028959;28;20137;-61
2023/05/27 04:18:08;;;;;;;16.05;5.38;;;;;;;14.18;53.39;101764.34;5012698;28;20054;-62
2023/05/27 04:20:40;;;;;;;17.55;5.00;;;;;;;14.06;53.28;101751.06;5011278;28;20045;-62
2023/05/27 04:23:10;;;;;;;24.38;5.13;;;;;;;14.30;53.27;101757.19;5045230;28;20046;-61
2023/05/27 04:25:39;;;;;;;15.55;4.47;;;;;;;14.38;52.84;101758.41;5027995;28;20046;-62
2023/05/27 04:28:09;;;;;;;17.15;4.63;;;;;;;14.19;53.33;101766.81;5011361;28;20049;-62
2023/05/27 04:30:40;;;;;;;16.85;4.82;;;;;;;13.64;54.76;101764.44;5027917;28;20072;-61
2023/05/27 04:33:36;;;;;;;15.45;4.70;;;;;;;13.96;54.13;101767.09;5006699;28;20054;-62
2023/05/27 04:36:04;;;;;;;17.02;4.95;;;;;;;13.93;54.01;101764.94;5011443;28;20505;-62
2023/05/27 04:38:40;;;;;;;20.65;4.72;;;;;;;14.07;53.57;101761.00;5011668;28;20061;-62
2023/05/27 04:41:08;;;;;;;15.90;4.60;;;;;;;14.06;53.46;101753.84;4997232;28;20570;-62
2023/05/27 04:43:42;;;;;;;19.60;4.90;;;;;;;14.01;53.60;101759.50;5035786;28;20049;-62
2023/05/27 04:46:13;;;;;;;19.15;5.20;;;;;;;13.95;54.21;101760.72;5010338;28;20049;-62
2023/05/27 04:48:44;;;;;;;18.60;4.95;;;;;;;13.98;53.99;101751.78;4994616;28;20053;-62
2023/05/27 04:51:15;;;;;;;;;;;;;;;14.22;53.50;101754.31;5009723;28;20582;-61
2023/05/27 04:53:43;;;;;;;17.90;4.95;;;;;;;14.22;53.48;101757.91;4993416;28;20708;-61
2023/05/27 04:56:14;;;;;;;18.30;4.95;;;;;;;13.62;54.88;101750.91;5005955;28;20174;-61
2023/05/27 04:58:46;;;;;;;18.27;5.05;;;;;;;13.53;55.39;101755.53;5047115;28;20045;-62
2023/05/27 05:01:21;;;;;;;20.20;5.25;;;;;;;13.75;54.72;101755.63;5026701;28;20054;-62
2023/05/27 05:04:11;;;;;;;20.00;4.50;;;;;;;13.94;54.19;101755.50;5010699;28;20053;-62
2023/05/27 05:07:00;;;;;;;17.23;4.75;;;;;;;14.13;54.08;101757.00;5010804;28;20069;-62
2023/05/27 05:09:28;;;;;;;18.20;5.40;;;;;;;14.06;53.78;101751.06;5024146;28;20050;-63
2023/05/27 05:12:02;;;;;;;14.50;4.30;;;;;;;14.01;54.02;101753.13;4994011;28;20045;-62
2023/05/27 05:14:35;;;;;;;21.05;4.95;;;;;;;13.96;54.41;101754.06;5027071;28;20493;-62
2023/05/27 05:17:03;;;;;;;18.10;4.65;;;;;;;13.93;54.43;101748.34;5011218;28;20076;-62
2023/05/27 05:19:30;;;;;;;20.52;5.65;;;;;;;14.36;53.66;101755.13;5011672;28;20057;-61
2023/05/27 05:21:58;;;;;;;22.23;5.32;;;;;;;14.33;53.26;101759.31;4993577;28;20065;-62
2023/05/27 05:24:28;;;;;;;15.48;4.50;;;;;;;14.32;53.06;101756.88;5026293;28;20421;-62
2023/05/27 05:26:56;;;;;;;19.75;4.82;;;;;;;14.06;54.14;101759.38;5026058;28;20060;-63
2023/05/27 05:29:25;;;;;;;16.05;5.10;;;;;;;13.97;54.46;101761.22;5005487;28;20053;-62
2023/05/27 05:31:55;;;;;;;21.42;5.22;;;;;;;13.99;54.21;101758.97;5006294;28;20049;-62
2023/05/27 05:34:26;;;;;;;16.98;5.22;;;;;;;14.02;54.60;101760.28;5040993;28;20049;-62
2023/05/27 05:36:57;;;;;;;19.45;4.97;;;;;;;13.98;54.44;101754.56;5023396;28;20541;-63
2023/05/27 05:39:27;;;;;;;18.90;4.80;;;;;;;13.97;54.38;101771.47;5010592;28;20416;-61
2023/05/27 05:41:57;;;;;;;24.02;5.38;;;;;;;13.73;55.04;101759.81;5010027;28;20049;-62
2023/05/27 05:44:26;;;;;;;23.48;5.88;;;;;;;13.83;55.04;101762.38;5016890;28;20050;-62
2023/05/27 05:46:54;;;;;;;18.95;5.80;;;;;;;13.96;54.68;101762.38;5006295;28;20080;-61
2023/05/27 05:49:24;;;;;;;17.88;5.47;;;;;;;14.05;54.30;101765.22;5009978;28;20050;-62
2023/05/27 05:51:51;;;;;;;17.85;5.05;;;;;;;13.95;54.65;101760.72;5011810;28;20038;-61
2023/05/27 05:54:19;;;;;;;19.58;5.47;;;;;;;14.03;54.65;101761.94;5009987;28;20164;-62
2023/05/27 05:56:52;;;;;;;15.73;5.18;;;;;;;14.27;53.97;101765.28;5009266;28;20054;-62
2023/05/27 05:59:20;;;;;;;18.27;5.18;;;;;;;14.22;54.17;101755.13;5008377;28;20046;-62
2023/05/27 06:01:47;;;;;;;22.40;5.57;;;;;;;14.39;54.13;101766.38;5018206;28;20050;-64
2023/05/27 06:04:17;;;;;;;18.02;6.25;;;;;;;14.41;53.53;101772.44;5000417;28;20050;-62
2023/05/27 06:06:46;;;;;;;21.10;5.57;;;;;;;14.18;54.91;101758.81;5010445;28;20198;-62
2023/05/27 06:09:16;;;;;;;;;;;;;;;14.03;54.80;101767.50;5011948;28;20045;-61
2023/05/27 06:11:44;;;;;;;21.77;5.50;;;;;;;14.28;54.37;101755.84;5026560;28;19928;-63
2023/05/27 06:14:12;;;;;;;26.73;6.88;;;;;;;14.54;53.89;101759.63;5014448;28;20050;-62
2023/05/27 06:16:39;;;;;;;29.15;5.97;;;;;;;14.48;54.57;101764.50;5008937;28;20058;-63
2023/05/27 06:19:08;;;;;;;19.40;4.90;;;;;;;14.26;54.26;101764.47;5010356;28;20042;-62
2023/05/27 06:21:36;;;;;;;16.27;4.72;;;;;;;14.44;54.16;101757.13;5025878;28;20065;-62
2023/05/27 06:24:23;;;;;;;14.23;4.57;;;;;;;14.52;53.66;101770.25;5007114;28;20061;-62
2023/05/27 06:27:03;;;;;;;21.63;5.85;;;;;;;14.37;54.51;101765.06;5007663;28;20059;-63
2023/05/27 06:29:34;;;;;;;18.33;5.18;;;;;;;14.40;54.32;101756.94;5006840;28;20046;-62
2023/05/27 06:32:02;;;;;;;23.60;5.82;;;;;;;14.07;55.38;101766.53;5017817;28;20062;-63
2023/05/27 06:34:29;;;;;;;20.38;5.45;;;;;;;13.97;55.76;101765.94;5008185;28;20062;-61
2023/05/27 06:36:57;;;;;;;13.15;5.07;;;;;;;14.13;55.39;101757.00;5009361;28;20061;-62
2023/05/27 06:39:25;;;;;;;20.35;6.32;;;;;;;14.21;54.98;101761.78;5021266;28;20045;-62
2023/05/27 06:41:52;;;;;;;18.05;4.85;;;;;;;14.66;55.06;101766.25;5030862;28;20057;-63
2023/05/27 06:44:34;;;;;;;19.98;6.13;;;;;;;14.78;54.16;101762.94;5021912;28;20042;-62
2023/05/27 06:47:10;;;;;;;16.52;5.07;;;;;;;14.97;55.52;101760.78;5017244;28;20041;-63
2023/05/27 06:49:38;;;;;;;19.60;5.65;;;;;;;15.17;53.49;101759.41;5020098;28;20052;-64
2023/05/27 06:52:06;;;;;;;20.05;5.68;;;;;;;15.36;52.25;101746.13;5036629;28;20771;-64
2023/05/27 06:54:58;;;;;;;18.95;4.85;;;;;;;15.45;52.80;101750.59;5026245;28;20527;-64
2023/05/27 06:57:45;;;;;;;16.75;4.80;;;;;;;15.39;52.36;101740.75;5009640;28;20046;-63
2023/05/27 07:00:18;;;;;;;19.27;5.07;;;;;;;15.45;53.51;101744.19;5008691;28;20045;-63
2023/05/27 07:03:06;;;;;;;24.17;5.80;;;;;;;15.53;52.81;101744.22;5019386;28;20046;-66
2023/05/27 07:05:34;;;;;;;16.00;5.53;;;;;;;15.61;52.19;101746.22;5029008;28;20611;-66
2023/05/27 07:08:02;;;;;;;17.30;4.97;;;;;;;15.41;52.54;101741.25;5026050;28;20058;-62
2023/05/27 07:10:29;;;;;;;18.08;5.03;;;;;;;15.57;52.30;101744.41;5023150;28;20727;-63
2023/05/27 07:12:57;;;;;;;27.55;5.93;;;;;;;15.65;53.38;101738.06;5028805;28;20050;-63
2023/05/27 07:15:31;;;;;;;17.33;5.25;;;;;;;15.94;51.78;101737.47;5012966;28;20050;-63
2023/05/27 07:17:59;;;;;;;20.42;5.68;;;;;;;15.70;52.92;101737.94;5031802;28;20461;-63
2023/05/27 07:20:26;;;;;;;24.40;5.32;;;;;;;15.69;52.82;101730.75;5016737;28;20046;-63
2023/05/27 07:22:53;;;;;;;20.05;5.13;;;;;;;16.15;52.29;101730.97;5030727;28;20060;-63
2023/05/27 07:25:21;;;;;;;30.00;5.88;;;;;;;16.39;51.44;101727.69;5040952;28;20580;-63
2023/05/27 07:27:49;;;;;;;17.50;5.85;;;;;;;16.75;49.74;101719.84;5017191;28;20053;-63
2023/05/27 07:30:16;;;;;;;21.25;6.10;;;;;;;16.37;50.79;101725.22;5014640;28;20417;-63
2023/05/27 07:32:53;;;;;;;18.95;5.40;;;;;;;16.61;50.18;101714.47;5012898;28;20045;-64
2023/05/27 07:35:20;;;;;;;22.55;6.18;;;;;;;16.69;49.92;101724.75;5012425;28;20053;-63
2023/05/27 07:37:48;;;;;;;20.95;5.78;;;;;;;16.50;49.70;101717.91;5011275;28;20050;-62
2023/05/27 07:40:15;;;;;;;28.80;5.78;;;;;;;17.11;49.07;101709.09;5011187;28;20050;-63
2023/05/27 07:42:43;;;;;;;24.83;5.68;;;;;;;17.43;47.76;101708.47;5034386;28;20061;-63
2023/05/27 07:45:10;;;;;;;14.77;4.90;;;;;;;17.85;47.44;101699.03;5016760;28;20054;-64
2023/05/27 07:47:39;;;;;;;18.55;6.03;;;;;;;17.43;47.32;101705.69;5002180;28;20048;-63
2023/05/27 07:50:06;;;;;;;24.15;5.72;;;;;;;17.26;47.88;101714.09;5014548;28;20044;-63
2023/05/27 07:52:36;;;;;;;;;;;;;;;17.20;48.60;101698.75;5016268;28;20508;-63
2023/05/27 07:55:16;;;;;;;14.43;5.50;;;;;;;17.48;47.73;101702.72;5019275;28;19955;-64
2023/05/27 07:57:44;;;;;;;18.85;5.90;;;;;;;18.10;46.83;101702.81;5015674;28;20046;-63
2023/05/27 08:00:12;;;;;;;18.63;5.80;;;;;;;17.63;46.90;101707.72;5014376;28;20054;-63
2023/05/27 08:02:52;;;;;;;18.50;5.70;;;;;;;17.47;47.82;101700.28;5014979;28;20082;-64
2023/05/27 08:05:40;;;;;;;18.45;5.65;;;;;;;18.22;46.76;101699.28;5012170;28;20060;-64
2023/05/27 08:08:19;;;;;;;18.60;5.90;;;;;;;18.24;46.20;101699.72;5000828;28;20061;-64
2023/05/27 08:11:05;;;;;;;23.83;5.68;;;;;;;17.86;47.11;101697.91;5016091;28;20389;-63
2023/05/27 08:13:59;;;;;;;21.95;6.22;;;;;;;17.43;48.09;101697.31;5013351;28;20050;-64
2023/05/27 08:16:59;;;;;;;;;;;;;;;16.96;49.49;101692.94;4985559;28;20064;-63
2023/05/27 08:19:40;;;;;;;18.85;5.63;;;;;;;17.41;49.09;101696.00;5011712;28;22021;-63
2023/05/27 08:22:16;;;;;;;24.83;6.22;;;;;;;17.96;49.19;101677.16;5014618;28;20049;-64
2023/05/27 08:25:02;;;;;;;21.77;6.05;;;;;;;18.26;48.12;101677.88;5015042;28;20038;-64
2023/05/27 08:27:51;;;;;;;20.10;5.93;;;;;;;17.63;48.24;101679.84;5010649;28;20421;-63
2023/05/27 08:30:41;;;;;;;24.90;5.70;;;;;;;18.34;47.82;101668.66;4975539;28;20539;-63
2023/05/27 08:33:18;;;;;;;25.25;5.85;;;;;;;18.18;48.25;101668.47;5025348;28;20054;-62
2023/05/27 08:35:45;;;;;;;24.23;5.85;;;;;;;17.91;48.55;101657.84;5011246;28;20053;-63
2023/05/27 08:38:13;;;;;;;25.85;6.00;;;;;;;17.50;49.32;101664.22;5012887;28;20037;-64
2023/05/27 08:40:41;;;;;;;20.40;6.10;;;;;;;17.65;49.36;101669.19;5009261;28;20057;-63
2023/05/27 08:43:09;;;;;;;19.58;6.13;;;;;;;17.97;48.58;101664.88;5025724;28;20050;-63
2023/05/27 08:45:44;;;;;;;23.92;6.43;;;;;;;17.76;48.85;101659.28;5016081;28;20701;-63
2023/05/27 08:48:11;;;;;;;21.70;6.03;;;;;;;17.92;47.94;101651.94;5039201;28;20058;-63
2023/05/27 08:50:41;;;;;;;21.45;6.65;;;;;;;18.16;48.47;101656.84;5022802;28;20057;-62
2023/05/27 08:53:09;;;;;;;18.48;5.40;;;;;;;18.45;47.56;101640.00;5015338;28;20060;-63
2023/05/27 08:55:39;;;;;;;17.05;5.80;;;;;;;18.73;47.96;101651.34;4999411;28;20049;-63
2023/05/27 08:58:09;;;;;;;20.55;5.90;;;;;;;18.50;47.09;101647.31;5009404;28;20057;-63
2023/05/27 09:00:41;;;;;;;18.42;5.45;;;;;;;18.29;47.91;101646.56;5028500;28;20045;-63
2023/05/27 09:03:27;;;;;;;21.45;6.10;;;;;;;17.91;48.27;101650.31;5034759;28;20045;-63
2023/05/27 09:05:56;;;;;;;18.07;6.13;;;;;;;17.95;48.28;101642.91;5039979;28;20076;-64
2023/05/27 09:08:24;;;;;;;21.02;5.90;;;;;;;18.17;47.89;101638.09;5012350;28;20081;-64
2023/05/27 09:11:19;;;;;;;16.27;5.72;;;;;;;18.29;47.55;101644.56;5014553;28;20057;-64
2023/05/27 09:13:47;;;;;;;18.67;6.18;;;;;;;18.57;47.45;101633.63;5012102;28;20050;-63
2023/05/27 09:16:19;;;;;;;18.58;6.32;;;;;;;18.53;47.57;101632.72;5017036;28;20346;-64
2023/05/27 09:18:47;;;;;;;23.25;6.85;;;;;;;18.92;47.48;101635.69;5020032;28;20061;-63
2023/05/27 09:21:14;;;;;;;25.77;7.05;;;;;;;19.01;46.61;101635.56;5013284;28;20041;-63
2023/05/27 09:23:42;;;;;;;26.75;6.18;;;;;;;18.62;46.50;101625.06;5012260;28;20053;-62
2023/05/27 09:26:10;;;;;;;25.90;5.65;;;;;;;18.87;47.04;101623.94;5021213;28;20053;-62
2023/05/27 09:28:38;;;;;;;15.88;5.78;;;;;;;19.30;46.99;101627.00;5017578;28;20054;-62
2023/05/27 09:31:07;;;;;;;14.55;6.05;;;;;;;19.22;46.34;101611.16;5011666;28;20042;-63
2023/05/27 09:33:37;;;;;;;21.90;5.85;;;;;;;19.18;46.45;101606.63;5015680;28;20046;-62
2023/05/27 09:36:05;;;;;;;20.35;5.63;;;;;;;19.09;45.81;101610.31;5008595;28;20046;-63
2023/05/27 09:38:34;;;;;;;18.50;6.43;;;;;;;19.08;46.67;101602.31;5037808;28;20054;-62
2023/05/27 09:41:03;;;;;;;15.90;5.77;;;;;;;19.19;46.24;101597.06;5014347;28;20077;-63
2023/05/27 09:43:30;;;;;;;16.08;6.00;;;;;;;19.22;46.29;101599.97;5016821;28;20289;-62
2023/05/27 09:46:03;;;;;;;19.02;5.93;;;;;;;19.05;46.49;101583.47;5017961;28;20061;-62
2023/05/27 09:48:34;;;;;;;20.33;6.57;;;;;;;19.38;46.61;101580.53;5042340;28;20132;-63
2023/05/27 09:51:03;;;;;;;16.67;6.35;;;;;;;19.42;46.31;101585.06;5008186;28;20058;-63
2023/05/27 09:53:30;;;;;;;17.10;5.85;;;;;;;19.43;46.33;101586.72;5010029;28;20057;-63
2023/05/27 09:55:58;;;;;;;22.65;5.68;;;;;;;19.32;46.21;101582.75;5009630;28;20066;-62
2023/05/27 09:58:26;;;;;;;19.35;6.60;;;;;;;19.38;45.87;101584.16;5008522;28;20046;-63
2023/05/27 10:00:55;;;;;;;25.40;6.78;;;;;;;19.50;46.24;101583.31;5007549;28;20049;-64
2023/05/27 10:03:28;;;;;;;21.08;6.63;;;;;;;19.53;45.65;101572.25;5010765;28;20581;-63
2023/05/27 10:05:56;;;;;;;19.88;6.80;;;;;;;19.58;45.62;101572.00;5009333;28;20061;-64
2023/05/27 10:08:24;;;;;;;18.65;6.45;;;;;;;19.43;46.20;101569.94;5008710;28;20064;-64
2023/05/27 10:10:53;;;;;;;18.88;5.57;;;;;;;19.44;46.39;101573.56;5013069;28;20052;-63
2023/05/27 10:13:23;;;;;;;17.30;5.55;;;;;;;19.52;46.13;101586.56;5010451;28;20049;-63
2023/05/27 10:15:54;;;;;;;18.30;5.55;;;;;;;19.66;45.85;101573.84;5006653;28;20053;-64
2023/05/27 10:18:29;;;;;;;20.08;6.25;;;;;;;19.32;46.36;101573.59;5008790;28;20053;-63
2023/05/27 10:20:58;;;;;;;19.73;6.00;;;;;;;19.44;46.25;101571.56;5011270;28;20100;-64
2023/05/27 10:23:27;;;;;;;17.00;6.30;;;;;;;19.45;45.88;101564.81;5009021;28;20053;-64
2023/05/27 10:26:05;;;;;;;25.00;6.28;;;;;;;19.71;45.88;101565.22;5010977;28;20053;-64
2023/05/27 10:28:39;;;;;;;17.17;5.82;;;;;;;19.76;45.58;101564.97;5026110;28;20409;-65
2023/05/27 10:31:11;;;;;;;20.38;5.40;;;;;;;19.61;45.56;101562.94;5009880;28;20432;-63
2023/05/27 10:33:50;;;;;;;14.65;5.22;;;;;;;19.58;45.57;101558.03;5018716;28;20441;-62
2023/05/27 10:36:23;;;;;;;16.63;5.75;;;;;;;19.73;45.64;101554.50;4996886;28;20521;-63
2023/05/27 10:39:04;;;;;;;17.40;5.63;;;;;;;19.90;45.28;101556.16;5020619;28;20057;-63
2023/05/27 10:41:51;;;;;;;19.58;6.63;;;;;;;19.97;45.56;101545.19;5042364;28;20057;-63
2023/05/27 10:44:36;;;;;;;18.77;6.05;;;;;;;20.13;45.18;101546.06;5020531;28;20585;-63
2023/05/27 10:47:09;;;;;;;16.02;6.18;;;;;;;20.13;45.35;101543.25;5020181;28;20056;-64
2023/05/27 10:49:39;;;;;;;13.80;5.65;;;;;;;20.48;45.00;101529.44;5020210;28;20554;-68
2023/05/27 10:52:15;;;;;;;22.75;5.82;;;;;;;20.46;45.54;101538.19;5023877;28;20049;-63
2023/05/27 10:54:45;;;;;;;19.20;5.80;;;;;;;20.48;45.40;101524.66;5022374;28;20414;-63
2023/05/27 10:57:14;;;;;;;19.45;6.30;;;;;;;20.18;46.31;101531.84;5017055;28;20077;-63
2023/05/27 10:59:55;;;;;;;22.20;6.60;;;;;;;20.31;45.76;101533.38;5045235;28;20057;-63
2023/05/27 11:02:31;;;;;;;17.38;6.70;;;;;;;20.39;45.32;101515.63;5009787;28;20050;-63
2023/05/27 11:05:08;;;;;;;17.65;5.95;;;;;;;20.40;44.90;101522.03;5031909;28;20054;-62
2023/05/27 11:07:38;;;;;;;21.63;6.43;;;;;;;20.35;45.00;101509.09;5014236;28;20053;-63
2023/05/27 11:10:09;;;;;;;16.98;5.97;;;;;;;20.38;45.47;101508.38;5016245;28;20405;-62
2023/05/27 11:12:36;;;;;;;19.17;6.97;;;;;;;20.46;45.45;101507.41;5015519;28;20050;-63
2023/05/27 11:15:04;;;;;;;19.27;5.93;;;;;;;20.68;44.39;101495.56;5038179;28;20066;-63
2023/05/27 11:17:33;;;;;;;15.65;5.55;;;;;;;20.93;43.97;101504.56;5018884;28;20046;-64
2023/05/27 11:20:05;;;;;;;26.58;5.97;;;;;;;20.97;43.67;101497.84;5013768;28;20058;-64
2023/05/27 11:22:36;;;;;;;20.55;6.93;;;;;;;21.15;43.95;101501.09;5016191;28;20054;-63
2023/05/27 11:25:05;;;;;;;24.73;7.35;;;;;;;21.21;44.83;101496.84;5020152;28;20050;-64
2023/05/27 11:27:39;;;;;;;18.00;5.53;;;;;;;21.13;44.14;101487.47;5018184;28;20054;-64
2023/05/27 11:30:11;;;;;;;18.15;5.72;;;;;;;21.34;44.35;101486.31;5018832;28;20050;-62
2023/05/27 11:32:42;;;;;;;17.00;5.28;;;;;;;21.38;44.19;101485.22;5018450;28;20049;-62
2023/05/27 11:35:15;;;;;;;15.15;6.03;;;;;;;21.61;43.50;101480.50;5018404;28;20042;-63
2023/05/27 11:37:49;;;;;;;19.75;5.63;;;;;;;21.81;42.58;101467.31;5015789;28;20041;-63